CES5101 ZBAA-ZBTJ
Flight info
| Callsign | CES5101 |
|---|---|
| Flight time | N/A |
| Altitude | 9800 |
| Route | OMDEK |
| Aircraft | B738/M-SDE2E3FGHIRWXY/LB1 |
Departure
| Time | 2026-05-04 09:56 |
|---|---|
| Airport | Beijing Capital International Airport (ZBAA) |
Arrival
| Time | N/A |
|---|---|
| Airport | Tianjin Binhai International Airport (ZBTJ) |
| Time | Latitude | Longitude | Altitude | Speed | Heading |
|---|---|---|---|---|---|
| 2026-05-04 09:25 | 40.06410 | 116.60635 | 124 ft | 0 kts | 84° |
| 2026-05-04 09:40 | 40.06410 | 116.60626 | 124 ft | 2 kts | 84° |
| 2026-05-04 09:40 | 40.06408 | 116.60606 | 124 ft | 2 kts | 84° |
| 2026-05-04 09:40 | 40.06406 | 116.60586 | 124 ft | 2 kts | 84° |
| 2026-05-04 09:41 | 40.06405 | 116.60568 | 124 ft | 2 kts | 84° |
| 2026-05-04 09:42 | 40.06433 | 116.60492 | 124 ft | 0 kts | 174° |
| 2026-05-04 09:46 | 40.06390 | 116.60499 | 124 ft | 3 kts | 173° |
| 2026-05-04 09:46 | 40.06368 | 116.60503 | 124 ft | 0 kts | 173° |
| 2026-05-04 09:49 | 40.06258 | 116.60184 | 124 ft | 10 kts | 271° |
| 2026-05-04 09:49 | 40.06307 | 116.60134 | 124 ft | 9 kts | 341° |
| 2026-05-04 09:49 | 40.06369 | 116.60122 | 124 ft | 8 kts | 354° |
| 2026-05-04 09:51 | 40.07143 | 116.60000 | 124 ft | 33 kts | 353° |
| 2026-05-04 09:51 | 40.07356 | 116.59967 | 124 ft | 28 kts | 353° |
| 2026-05-04 09:51 | 40.07542 | 116.59937 | 124 ft | 26 kts | 353° |
| 2026-05-04 09:51 | 40.07715 | 116.59911 | 124 ft | 23 kts | 353° |
| 2026-05-04 09:52 | 40.07872 | 116.59885 | 124 ft | 22 kts | 353° |
| 2026-05-04 09:52 | 40.08044 | 116.59859 | 124 ft | 25 kts | 353° |
| 2026-05-04 09:52 | 40.08218 | 116.59831 | 124 ft | 22 kts | 354° |
| 2026-05-04 09:52 | 40.08370 | 116.59808 | 124 ft | 21 kts | 352° |
| 2026-05-04 09:53 | 40.08509 | 116.59786 | 124 ft | 18 kts | 353° |
| 2026-05-04 09:53 | 40.08644 | 116.59766 | 124 ft | 21 kts | 353° |
| 2026-05-04 09:53 | 40.08791 | 116.59743 | 124 ft | 22 kts | 353° |
| 2026-05-04 09:53 | 40.08892 | 116.59702 | 124 ft | 9 kts | 298° |
| 2026-05-04 09:54 | 40.08887 | 116.59621 | 124 ft | 8 kts | 261° |
| 2026-05-04 09:54 | 40.08879 | 116.59548 | 124 ft | 7 kts | 264° |
| 2026-05-04 09:54 | 40.08857 | 116.59500 | 124 ft | 6 kts | 199° |
| 2026-05-04 09:54 | 40.08830 | 116.59499 | 124 ft | 0 kts | 172° |
| 2026-05-04 09:55 | 40.08829 | 116.59499 | 124 ft | 0 kts | 172° |
| 2026-05-04 09:55 | 40.08828 | 116.59499 | 124 ft | 0 kts | 172° |
| 2026-05-04 09:55 | 40.08728 | 116.59514 | 124 ft | 45 kts | 176° |
| 2026-05-04 09:55 | 40.08177 | 116.59602 | 124 ft | 111 kts | 173° |
| 2026-05-04 09:56 | 40.07228 | 116.59748 | 126 ft | 160 kts | 172° |
| 2026-05-04 09:56 | 40.06054 | 116.59924 | 388 ft | 183 kts | 178° |
| 2026-05-04 09:56 | 40.04670 | 116.60076 | 793 ft | 211 kts | 174° |
| 2026-05-04 09:56 | 40.03166 | 116.60388 | 1554 ft | 222 kts | 172° |
| 2026-05-04 09:57 | 40.01698 | 116.60699 | 2524 ft | 218 kts | 174° |
| 2026-05-04 09:57 | 40.00138 | 116.60950 | 3069 ft | 236 kts | 175° |
| 2026-05-04 09:57 | 39.98454 | 116.61209 | 3700 ft | 249 kts | 175° |
| 2026-05-04 09:57 | 39.96699 | 116.61477 | 4389 ft | 259 kts | 176° |
| 2026-05-04 09:58 | 39.94907 | 116.61746 | 5124 ft | 266 kts | 176° |
| 2026-05-04 09:58 | 39.93039 | 116.62026 | 5851 ft | 274 kts | 176° |
| 2026-05-04 09:58 | 39.91156 | 116.62308 | 6586 ft | 280 kts | 176° |
| 2026-05-04 10:00 | 39.76461 | 116.64526 | 9741 ft | 310 kts | 176° |
| 2026-05-04 10:00 | 39.74331 | 116.64848 | 9623 ft | 310 kts | 176° |
| 2026-05-04 10:02 | 39.58903 | 116.67938 | 9619 ft | 360 kts | 171° |
| 2026-05-04 10:04 | 39.44560 | 116.76116 | 9622 ft | 316 kts | 152° |
| 2026-05-04 10:04 | 39.42633 | 116.77490 | 9619 ft | 316 kts | 152° |
| 2026-05-04 10:04 | 39.40696 | 116.78869 | 9620 ft | 315 kts | 152° |
| 2026-05-04 10:04 | 39.38773 | 116.80238 | 9620 ft | 315 kts | 152° |
| 2026-05-04 10:05 | 39.36847 | 116.81609 | 9618 ft | 316 kts | 152° |
| 2026-05-04 10:05 | 39.34928 | 116.82975 | 9616 ft | 316 kts | 152° |
| 2026-05-04 10:05 | 39.32949 | 116.84222 | 9618 ft | 316 kts | 159° |
| 2026-05-04 10:05 | 39.30875 | 116.85234 | 9606 ft | 320 kts | 161° |
| 2026-05-04 10:06 | 39.28819 | 116.86261 | 9611 ft | 316 kts | 160° |
| 2026-05-04 10:06 | 39.26791 | 116.87308 | 9608 ft | 309 kts | 160° |
| 2026-05-04 10:06 | 39.24824 | 116.88303 | 9617 ft | 295 kts | 160° |
| 2026-05-04 10:08 | 39.12576 | 116.93521 | 9620 ft | 310 kts | 188° |
| 2026-05-04 10:08 | 39.10511 | 116.92940 | 9620 ft | 304 kts | 205° |
| 2026-05-04 10:08 | 39.08568 | 116.91856 | 9614 ft | 302 kts | 208° |
| 2026-05-04 10:08 | 39.06661 | 116.90762 | 9617 ft | 302 kts | 208° |
| 2026-05-04 10:09 | 39.04703 | 116.89668 | 9622 ft | 303 kts | 208° |
| 2026-05-04 10:09 | 39.02802 | 116.88589 | 9629 ft | 302 kts | 208° |
| 2026-05-04 10:09 | 39.00873 | 116.87485 | 9623 ft | 302 kts | 208° |
| 2026-05-04 10:09 | 38.98945 | 116.86384 | 9620 ft | 302 kts | 208° |
| 2026-05-04 10:10 | 38.97024 | 116.85287 | 9619 ft | 302 kts | 208° |
| 2026-05-04 10:10 | 38.95094 | 116.84183 | 9619 ft | 302 kts | 208° |
| 2026-05-04 10:10 | 38.93197 | 116.83097 | 9627 ft | 302 kts | 208° |
| 2026-05-04 10:10 | 38.91301 | 116.82006 | 9623 ft | 293 kts | 208° |
| 2026-05-04 10:11 | 38.89407 | 116.80931 | 9628 ft | 304 kts | 208° |
| 2026-05-04 10:11 | 38.87461 | 116.79845 | 9616 ft | 299 kts | 208° |
| 2026-05-04 10:11 | 38.85594 | 116.78766 | 9627 ft | 291 kts | 209° |
| 2026-05-04 10:11 | 38.83714 | 116.77676 | 9621 ft | 302 kts | 208° |
| 2026-05-04 10:12 | 38.81796 | 116.76594 | 9624 ft | 302 kts | 208° |
| 2026-05-04 10:12 | 38.79865 | 116.75504 | 9628 ft | 303 kts | 208° |
| 2026-05-04 10:12 | 38.77931 | 116.74406 | 9629 ft | 302 kts | 208° |
| 2026-05-04 10:12 | 38.76012 | 116.73315 | 9625 ft | 302 kts | 208° |
| 2026-05-04 10:13 | 38.74099 | 116.72233 | 9633 ft | 302 kts | 208° |
| 2026-05-04 10:13 | 38.72179 | 116.71147 | 9634 ft | 302 kts | 208° |
| 2026-05-04 10:13 | 38.70263 | 116.70064 | 9638 ft | 302 kts | 208° |
| 2026-05-04 10:13 | 38.68371 | 116.68854 | 9642 ft | 299 kts | 217° |
| 2026-05-04 10:14 | 38.66758 | 116.67204 | 9640 ft | 294 kts | 231° |
| 2026-05-04 10:14 | 38.65522 | 116.65185 | 9636 ft | 288 kts | 243° |
| 2026-05-04 10:16 | 38.64492 | 116.48232 | 9634 ft | 276 kts | 276° |
| 2026-05-04 10:16 | 38.64557 | 116.45815 | 9631 ft | 275 kts | 275° |
| 2026-05-04 10:16 | 38.64623 | 116.43361 | 9626 ft | 276 kts | 275° |
| 2026-05-04 10:16 | 38.64689 | 116.40932 | 9625 ft | 275 kts | 276° |
| 2026-05-04 10:17 | 38.64754 | 116.38482 | 9627 ft | 275 kts | 275° |
| 2026-05-04 10:17 | 38.64818 | 116.36053 | 9630 ft | 275 kts | 275° |
| 2026-05-04 10:19 | 38.65991 | 116.19122 | 9619 ft | 271 kts | 294° |
| 2026-05-04 10:19 | 38.66821 | 116.16981 | 9688 ft | 267 kts | 302° |
| 2026-05-04 10:19 | 38.67889 | 116.15029 | 9733 ft | 271 kts | 310° |
| 2026-05-04 10:19 | 38.69208 | 116.13322 | 9730 ft | 270 kts | 319° |
| 2026-05-04 10:20 | 38.70702 | 116.11885 | 9726 ft | 270 kts | 327° |
| 2026-05-04 10:20 | 38.72385 | 116.10754 | 9719 ft | 271 kts | 336° |
| 2026-05-04 10:20 | 38.74178 | 116.09998 | 9722 ft | 273 kts | 343° |
| 2026-05-04 10:20 | 38.76045 | 116.09585 | 9733 ft | 274 kts | 352° |
| 2026-05-04 10:21 | 38.77966 | 116.09584 | 9748 ft | 278 kts | 2° |
| 2026-05-04 10:21 | 38.79878 | 116.09978 | 9751 ft | 280 kts | 10° |
| 2026-05-04 10:21 | 38.81741 | 116.10761 | 9745 ft | 284 kts | 19° |
| 2026-05-04 10:21 | 38.83483 | 116.11968 | 9743 ft | 287 kts | 29° |
| 2026-05-04 10:22 | 38.86462 | 116.15445 | 9746 ft | 295 kts | 49° |
| 2026-05-04 10:22 | 38.87571 | 116.17693 | 9745 ft | 299 kts | 58° |
| 2026-05-04 10:22 | 38.88399 | 116.20158 | 9744 ft | 302 kts | 68° |
| 2026-05-04 10:23 | 38.88849 | 116.22813 | 9751 ft | 306 kts | 80° |
| 2026-05-04 10:23 | 38.88934 | 116.25517 | 9754 ft | 309 kts | 89° |
| 2026-05-04 10:25 | 38.92468 | 116.41828 | 9752 ft | 285 kts | 56° |
| 2026-05-04 10:25 | 38.93430 | 116.44050 | 9752 ft | 285 kts | 56° |
| 2026-05-04 10:25 | 38.94389 | 116.46273 | 9752 ft | 286 kts | 56° |
| 2026-05-04 10:25 | 38.95330 | 116.48504 | 9754 ft | 284 kts | 57° |
| 2026-05-04 10:26 | 38.96261 | 116.50725 | 9748 ft | 285 kts | 57° |
| 2026-05-04 10:26 | 38.97212 | 116.52995 | 9746 ft | 285 kts | 57° |
| 2026-05-04 10:26 | 38.98147 | 116.55235 | 9745 ft | 286 kts | 57° |
| 2026-05-04 10:26 | 38.99083 | 116.57482 | 9745 ft | 286 kts | 57° |
| 2026-05-04 10:27 | 39.00022 | 116.59734 | 9752 ft | 286 kts | 57° |
| 2026-05-04 10:27 | 39.00948 | 116.61953 | 9757 ft | 285 kts | 57° |
| 2026-05-04 10:27 | 39.01883 | 116.64197 | 9749 ft | 285 kts | 57° |
| 2026-05-04 10:27 | 39.02818 | 116.66451 | 9749 ft | 285 kts | 57° |
| 2026-05-04 10:28 | 39.03754 | 116.68703 | 9751 ft | 285 kts | 57° |
| 2026-05-04 10:28 | 39.04691 | 116.70957 | 9752 ft | 285 kts | 57° |
| 2026-05-04 10:28 | 39.05613 | 116.73182 | 9750 ft | 285 kts | 57° |
| 2026-05-04 10:28 | 39.06553 | 116.75451 | 9558 ft | 289 kts | 57° |
| 2026-05-04 10:29 | 39.07492 | 116.77719 | 9263 ft | 286 kts | 58° |
| 2026-05-04 10:29 | 39.08416 | 116.79953 | 8970 ft | 282 kts | 58° |
| 2026-05-04 10:29 | 39.09329 | 116.82157 | 8681 ft | 279 kts | 58° |
| 2026-05-04 10:29 | 39.10244 | 116.84368 | 8369 ft | 277 kts | 58° |
| 2026-05-04 10:30 | 39.11139 | 116.86535 | 7997 ft | 278 kts | 59° |
| 2026-05-04 10:30 | 39.12044 | 116.88730 | 7620 ft | 273 kts | 59° |
| 2026-05-04 10:30 | 39.12924 | 116.90865 | 7265 ft | 268 kts | 59° |
| 2026-05-04 10:30 | 39.13788 | 116.92960 | 6911 ft | 264 kts | 60° |
| 2026-05-04 10:31 | 39.14635 | 116.95017 | 6556 ft | 260 kts | 60° |
| 2026-05-04 10:31 | 39.15483 | 116.97075 | 6187 ft | 257 kts | 61° |
| 2026-05-04 10:32 | 39.20517 | 117.09333 | 4106 ft | 261 kts | 63° |
| 2026-05-04 10:33 | 39.21354 | 117.11375 | 3811 ft | 260 kts | 63° |
| 2026-05-04 10:33 | 39.22195 | 117.13432 | 3516 ft | 259 kts | 64° |
| 2026-05-04 10:33 | 39.23024 | 117.15471 | 3191 ft | 256 kts | 65° |
| 2026-05-04 10:33 | 39.23794 | 117.17490 | 2995 ft | 246 kts | 66° |
| 2026-05-04 10:34 | 39.24528 | 117.19425 | 2956 ft | 235 kts | 66° |
| 2026-05-04 10:34 | 39.25256 | 117.21346 | 2981 ft | 242 kts | 66° |
| 2026-05-04 10:34 | 39.25722 | 117.23383 | 2957 ft | 234 kts | 93° |
| 2026-05-04 10:34 | 39.25414 | 117.25347 | 2959 ft | 217 kts | 120° |
| 2026-05-04 10:35 | 39.24597 | 117.26878 | 2951 ft | 196 kts | 146° |
| 2026-05-04 10:35 | 39.23501 | 117.27744 | 2915 ft | 178 kts | 157° |
| 2026-05-04 10:35 | 39.22385 | 117.28468 | 2650 ft | 181 kts | 159° |
| 2026-05-04 10:35 | 39.21267 | 117.29172 | 2428 ft | 175 kts | 159° |
| 2026-05-04 10:36 | 39.20189 | 117.29841 | 2131 ft | 170 kts | 159° |
| 2026-05-04 10:36 | 39.19146 | 117.30483 | 1855 ft | 161 kts | 159° |
| 2026-05-04 10:36 | 39.18196 | 117.31079 | 1792 ft | 154 kts | 159° |
| 2026-05-04 10:36 | 39.17200 | 117.31703 | 1067 ft | 176 kts | 159° |
| 2026-05-04 10:37 | 39.16134 | 117.32346 | 680 ft | 161 kts | 158° |
| 2026-05-04 10:37 | 39.15130 | 117.32973 | 275 ft | 152 kts | 156° |
| 2026-05-04 10:37 | 39.14200 | 117.33538 | 104 ft | 149 kts | 157° |
| 2026-05-04 10:37 | 39.13308 | 117.34067 | 21 ft | 120 kts | 152° |